Time;durP1;ratioP1;P1;durP2;ratioP2;P2;SDS_P1;SDS_P2;PMS_P1;PMS_P2;Temp;Humidity;BMP_temperature;BMP_pressure;BME280_temperature;BME280_humidity;BME280_pressure;Samples;Min_cycle;Max_cycle;Signal;HPM_P1;HPM_P2
2023/06/02 00:01:35;;;;;;;7.88;3.67;;;;;;;11.47;75.87;102083.13;5013495;28;20033;-85
2023/06/02 00:04:01;;;;;;;11.80;3.80;;;;;;;11.45;75.60;102077.94;5027007;28;20709;-85
2023/06/02 00:06:30;;;;;;;12.43;3.55;;;;;;;11.43;75.84;102086.88;5033490;28;20025;-85
2023/06/02 00:08:57;;;;;;;11.73;3.97;;;;;;;11.40;76.26;102081.78;5033001;28;20385;-86
2023/06/02 00:11:23;;;;;;;7.95;3.60;;;;;;;11.45;75.61;102083.22;5033174;28;20083;-86
2023/06/02 00:13:48;;;;;;;9.85;4.30;;;;;;;11.34;75.69;102077.72;5032208;28;20017;-79
2023/06/02 00:16:15;;;;;;;11.35;4.10;;;;;;;11.33;76.29;102077.81;5023809;28;20030;-79
2023/06/02 00:18:43;;;;;;;12.40;4.32;;;;;;;11.40;76.09;102081.78;5019948;28;20091;-86
2023/06/02 00:21:09;;;;;;;12.25;3.95;;;;;;;11.27;75.34;102081.66;5033150;28;20025;-84
2023/06/02 00:23:35;;;;;;;11.55;4.40;;;;;;;11.27;75.56;102085.13;5032867;28;20371;-80
2023/06/02 00:26:02;;;;;;;11.25;4.57;;;;;;;11.30;75.62;102076.19;5040367;28;20033;-86
2023/06/02 00:28:28;;;;;;;9.80;4.38;;;;;;;11.23;75.48;102078.34;5053674;28;20485;-86
2023/06/02 00:30:55;;;;;;;10.52;4.55;;;;;;;11.21;75.28;102074.94;5044843;28;20040;-80
2023/06/02 00:33:20;;;;;;;11.10;4.50;;;;;;;11.16;74.64;102074.34;5029511;28;20057;-79
2023/06/02 00:35:46;;;;;;;9.85;3.92;;;;;;;11.17;74.81;102078.66;5032527;28;20394;-80
2023/06/02 00:38:11;;;;;;;13.00;4.05;;;;;;;11.18;75.05;102080.38;5031068;28;20030;-78
2023/06/02 00:40:37;;;;;;;9.10;3.90;;;;;;;11.15;75.19;102074.41;5032591;28;20025;-78
2023/06/02 00:43:04;;;;;;;10.48;4.10;;;;;;;11.16;74.97;102079.59;5029677;28;20095;-78
2023/06/02 00:45:30;;;;;;;12.63;4.13;;;;;;;11.13;75.42;102077.16;5031739;28;20100;-85
2023/06/02 00:47:55;;;;;;;12.63;4.00;;;;;;;11.12;74.74;102078.09;5032327;28;20148;-86
2023/06/02 00:50:22;;;;;;;19.85;5.00;;;;;;;11.09;73.40;102083.53;5023096;28;20030;-79
2023/06/02 00:52:51;;;;;;;11.27;3.95;;;;;;;11.03;73.94;102073.34;5018392;28;20022;-78
2023/06/02 00:55:17;;;;;;;10.48;3.70;;;;;;;11.04;73.94;102069.78;5035736;28;20017;-77
2023/06/02 00:57:42;;;;;;;12.07;4.43;;;;;;;11.03;73.10;102073.34;5050140;28;20070;-80
2023/06/02 01:00:09;;;;;;;13.57;4.30;;;;;;;11.07;73.58;102071.38;5049925;28;20544;-86
2023/06/02 01:02:35;;;;;;;10.35;3.80;;;;;;;10.99;73.22;102071.81;5050976;28;20048;-78
2023/06/02 01:05:06;;;;;;;13.88;3.58;;;;;;;11.03;74.37;102073.34;5045998;28;20025;-78
2023/06/02 01:07:33;;;;;;;12.13;3.85;;;;;;;11.03;72.91;102078.59;5026404;28;20036;-78
2023/06/02 01:10:02;;;;;;;9.65;4.40;;;;;;;11.09;73.48;102080.88;5019535;28;20033;-85
2023/06/02 01:12:29;;;;;;;16.92;4.53;;;;;;;11.01;72.29;102080.47;5030782;28;20021;-84
2023/06/02 01:14:54;;;;;;;12.82;4.28;;;;;;;10.93;72.82;102077.44;5031043;28;20155;-78
2023/06/02 01:17:27;;;;;;;13.05;3.85;;;;;;;10.86;72.55;102076.94;5031916;28;20104;-78
2023/06/02 01:19:54;;;;;;;13.32;4.15;;;;;;;10.87;72.84;102078.63;5029987;28;20021;-78
2023/06/02 01:22:25;;;;;;;10.85;4.40;;;;;;;10.97;72.87;102081.59;5032134;28;20347;-85
2023/06/02 01:24:51;;;;;;;19.90;4.38;;;;;;;10.95;72.88;102075.56;5024542;28;20367;-79
2023/06/02 01:27:16;;;;;;;15.70;4.28;;;;;;;10.86;71.32;102076.94;5036722;28;20025;-86
2023/06/02 01:29:44;;;;;;;19.73;5.35;;;;;;;10.77;71.56;102092.34;5032201;28;20432;-79
2023/06/02 01:32:34;;;;;;;14.82;4.93;;;;;;;10.78;71.34;102088.78;5049135;28;20025;-79
2023/06/02 01:35:09;;;;;;;13.65;4.60;;;;;;;10.63;72.23;102086.06;5058383;28;20037;-86
2023/06/02 01:37:39;;;;;;;15.07;4.18;;;;;;;10.64;71.76;102086.91;5050114;28;20021;-84
2023/06/02 01:40:07;;;;;;;17.77;4.93;;;;;;;10.64;71.94;102082.50;5041712;28;20116;-79
2023/06/02 01:42:34;;;;;;;13.38;4.03;;;;;;;10.70;72.16;102077.84;5011090;28;20422;-85
2023/06/02 01:45:02;;;;;;;14.05;4.47;;;;;;;10.71;72.91;102072.47;5027529;28;20026;-84
2023/06/02 01:47:28;;;;;;;12.30;4.68;;;;;;;10.72;72.39;102081.22;5030609;28;20124;-84
2023/06/02 01:49:57;;;;;;;14.25;4.30;;;;;;;10.68;72.88;102084.03;5046511;28;20098;-84
2023/06/02 01:52:22;;;;;;;16.63;4.68;;;;;;;10.67;72.88;102071.81;5029567;28;20037;-81
2023/06/02 01:54:50;;;;;;;14.68;4.30;;;;;;;10.68;72.95;102077.91;5031737;28;20500;-85
2023/06/02 01:57:16;;;;;;;13.82;4.43;;;;;;;10.66;72.92;102074.53;5040515;28;20082;-84
2023/06/02 01:59:41;;;;;;;14.50;4.80;;;;;;;10.70;73.02;102069.94;5011417;28;20379;-79
2023/06/02 02:02:06;;;;;;;15.63;4.88;;;;;;;10.65;72.40;102075.47;5039411;28;20080;-84
2023/06/02 02:04:33;;;;;;;12.68;3.83;;;;;;;10.65;73.11;102076.31;5011509;28;20517;-79
2023/06/02 02:07:01;;;;;;;15.85;4.30;;;;;;;10.68;73.12;102073.50;5011168;28;20038;-79
2023/06/02 02:09:27;;;;;;;13.20;4.47;;;;;;;10.71;73.39;102074.28;5011156;28;20036;-84
2023/06/02 02:11:52;;;;;;;15.88;4.78;;;;;;;10.66;72.74;102077.16;5011398;28;20030;-85
2023/06/02 02:14:19;;;;;;;17.15;4.45;;;;;;;10.70;73.25;102075.19;5012219;28;20040;-81
2023/06/02 02:16:49;;;;;;;16.90;5.13;;;;;;;10.73;73.17;102069.75;5013523;28;20028;-83
2023/06/02 02:19:18;;;;;;;15.68;4.47;;;;;;;10.70;73.03;102080.47;5029807;28;20132;-84
2023/06/02 02:21:43;;;;;;;14.00;4.25;;;;;;;10.68;73.43;102078.78;5030250;28;20029;-84
2023/06/02 02:24:09;;;;;;;13.25;4.50;;;;;;;10.72;73.37;102074.19;5029978;28;20394;-84
2023/06/02 02:26:35;;;;;;;13.20;4.30;;;;;;;10.79;73.89;102079.97;5043468;28;20040;-80
2023/06/02 02:29:01;;;;;;;15.27;4.70;;;;;;;10.72;74.06;102078.59;5048457;28;20033;-83
2023/06/02 02:31:27;;;;;;;13.43;4.22;;;;;;;10.81;73.96;102072.84;5035272;28;20025;-79
2023/06/02 02:33:53;;;;;;;16.08;4.75;;;;;;;10.78;73.86;102073.00;5031079;28;20484;-79
2023/06/02 02:36:18;;;;;;;15.77;5.05;;;;;;;10.78;74.51;102065.09;5029861;28;20151;-83
2023/06/02 02:38:44;;;;;;;13.88;4.20;;;;;;;10.74;74.04;102072.31;5030979;28;20103;-84
2023/06/02 02:41:11;;;;;;;14.73;4.78;;;;;;;10.72;74.80;102070.69;5029385;28;20040;-83
2023/06/02 02:43:37;;;;;;;16.02;4.50;;;;;;;10.72;73.92;102063.66;5029146;28;20407;-79
2023/06/02 02:46:03;;;;;;;16.83;4.28;;;;;;;10.76;74.30;102070.44;5029476;28;20021;-84
2023/06/02 02:48:29;;;;;;;15.25;4.60;;;;;;;10.76;74.56;102067.81;5017140;28;20056;-84
2023/06/02 02:50:55;;;;;;;13.65;4.10;;;;;;;10.87;74.38;102061.97;5009465;28;20026;-84
2023/06/02 02:53:21;;;;;;;14.43;4.63;;;;;;;10.86;74.26;102062.91;5029347;28;20025;-79
2023/06/02 02:55:51;;;;;;;16.23;4.93;;;;;;;10.78;74.36;102058.03;5039235;28;20051;-80
2023/06/02 02:58:18;;;;;;;21.27;5.45;;;;;;;10.80;74.73;102055.31;5047548;28;20040;-83
2023/06/02 03:00:45;;;;;;;14.65;4.70;;;;;;;10.78;74.36;102054.56;5049716;28;20564;-80
2023/06/02 03:03:11;;;;;;;17.27;4.75;;;;;;;10.80;74.58;102055.31;5049057;28;20511;-83
2023/06/02 03:05:37;;;;;;;12.95;4.43;;;;;;;10.76;75.03;102059.91;5028484;28;20109;-83
2023/06/02 03:08:03;;;;;;;13.82;4.50;;;;;;;10.82;75.51;102059.59;5010158;28;20483;-80
2023/06/02 03:10:29;;;;;;;13.02;4.72;;;;;;;10.73;75.54;102067.13;5029307;28;20172;-80
2023/06/02 03:12:54;;;;;;;16.08;5.05;;;;;;;10.82;75.96;102069.28;5028574;28;20481;-80
2023/06/02 03:15:20;;;;;;;11.60;4.63;;;;;;;10.82;76.38;102069.28;5029326;28;20029;-84
2023/06/02 03:17:45;;;;;;;14.57;4.82;;;;;;;10.81;76.42;102068.44;5030344;28;20066;-80
2023/06/02 03:20:11;;;;;;;17.92;4.88;;;;;;;10.80;76.15;102071.13;5028924;28;20079;-83
2023/06/02 03:22:38;;;;;;;14.88;4.15;;;;;;;10.81;76.15;102068.44;5030163;28;20393;-83
2023/06/02 03:25:05;;;;;;;14.73;4.68;;;;;;;10.73;75.57;102069.75;5014971;28;20034;-84
2023/06/02 03:27:30;;;;;;;18.17;4.82;;;;;;;10.79;75.02;102075.53;5010329;28;20080;-85
2023/06/02 03:29:57;;;;;;;13.77;4.75;;;;;;;10.73;74.96;102075.03;5030099;28;20377;-83
2023/06/02 03:32:22;;;;;;;15.23;4.53;;;;;;;10.77;75.15;102072.16;5048382;28;20025;-79
2023/06/02 03:34:48;;;;;;;13.40;4.47;;;;;;;10.72;74.79;102068.06;5049439;28;20028;-83
2023/06/02 03:37:14;;;;;;;14.95;4.53;;;;;;;10.67;74.73;102073.59;5049400;28;20481;-82
2023/06/02 03:39:39;;;;;;;17.75;4.72;;;;;;;10.71;75.02;102083.00;5048260;28;20028;-83
2023/06/02 03:42:06;;;;;;;13.75;4.78;;;;;;;10.65;74.40;102083.34;5016073;28;20032;-83
2023/06/02 03:44:31;;;;;;;18.35;4.45;;;;;;;10.62;74.60;102084.38;5028852;28;20054;-84
2023/06/02 03:46:56;;;;;;;16.10;4.78;;;;;;;10.59;74.52;102081.91;5028457;28;20103;-83
2023/06/02 03:49:26;;;;;;;14.70;4.60;;;;;;;10.61;74.27;102087.94;5026112;28;20030;-84
2023/06/02 03:51:52;;;;;;;15.85;4.43;;;;;;;10.62;73.83;102083.53;5010097;28;20030;-83
2023/06/02 03:54:20;;;;;;;14.65;4.53;;;;;;;10.64;74.13;102084.28;5008676;28;20031;-84
2023/06/02 03:56:46;;;;;;;14.13;4.65;;;;;;;10.65;73.94;102083.34;5044499;28;20126;-80
2023/06/02 03:59:11;;;;;;;12.82;4.63;;;;;;;10.59;73.26;102089.81;5046124;28;20021;-80
2023/06/02 04:01:39;;;;;;;14.90;4.50;;;;;;;10.55;72.96;102095.31;5028627;28;20033;-80
2023/06/02 04:04:04;;;;;;;15.30;3.97;;;;;;;10.50;74.19;102098.19;5028505;28;20394;-80
2023/06/02 04:06:30;;;;;;;10.20;4.07;;;;;;;10.46;74.26;102096.66;5025397;28;20033;-80
2023/06/02 04:08:55;;;;;;;15.23;4.55;;;;;;;10.53;74.81;102099.81;5008200;28;20033;-80
2023/06/02 04:11:22;;;;;;;15.85;4.45;;;;;;;10.50;74.67;102100.84;5009691;28;20029;-84
2023/06/02 04:13:48;;;;;;;16.13;4.60;;;;;;;10.49;74.59;102099.13;5010057;28;20018;-84
2023/06/02 04:16:15;;;;;;;16.58;4.35;;;;;;;10.50;74.91;102103.47;5011301;28;20106;-84
2023/06/02 04:18:40;;;;;;;17.48;4.78;;;;;;;10.46;75.37;102095.81;5028132;28;20034;-83
2023/06/02 04:21:06;;;;;;;15.18;4.45;;;;;;;10.51;75.33;102097.28;5027950;28;20471;-80
2023/06/02 04:23:31;;;;;;;13.77;4.85;;;;;;;10.50;74.03;102100.84;5025886;28;20033;-80
2023/06/02 04:25:56;;;;;;;17.63;4.32;;;;;;;10.46;73.84;102103.72;5036548;28;20485;-83
2023/06/02 04:28:22;;;;;;;13.15;4.65;;;;;;;10.41;74.79;102106.59;5049116;28;20067;-80
2023/06/02 04:30:51;;;;;;;12.13;4.20;;;;;;;10.39;73.39;102094.41;5057612;28;20029;-83
2023/06/02 04:33:16;;;;;;;16.60;4.90;;;;;;;10.35;73.45;102096.38;5027768;28;20017;-84
2023/06/02 04:35:42;;;;;;;13.55;4.30;;;;;;;10.36;73.08;102095.44;5029728;28;20028;-82
2023/06/02 04:38:09;;;;;;;15.95;4.88;;;;;;;10.36;73.02;102091.03;5026823;28;20031;-83
2023/06/02 04:40:37;;;;;;;13.60;3.92;;;;;;;10.34;73.57;102099.94;5025938;28;20049;-83
2023/06/02 04:43:03;;;;;;;14.02;4.10;;;;;;;10.34;72.14;102099.94;5008088;28;20050;-81
2023/06/02 04:45:29;;;;;;;16.52;3.78;;;;;;;10.30;71.97;102103.66;5009578;28;20160;-83
2023/06/02 04:47:55;;;;;;;12.75;4.45;;;;;;;10.23;72.46;102102.28;5008843;28;20105;-82
2023/06/02 04:50:20;;;;;;;14.27;4.25;;;;;;;10.29;72.77;102104.59;5011571;28;20495;-83
2023/06/02 04:52:45;;;;;;;14.85;4.32;;;;;;;10.31;73.03;102095.69;5032676;28;20029;-80
2023/06/02 04:55:11;;;;;;;13.25;3.65;;;;;;;10.29;72.82;102108.06;5035962;28;20029;-80
2023/06/02 04:57:38;;;;;;;13.95;3.80;;;;;;;10.29;73.44;102107.22;5039329;28;20029;-80
2023/06/02 05:00:06;;;;;;;18.15;4.72;;;;;;;10.28;73.52;102105.50;5011853;28;20029;-81
2023/06/02 05:02:31;;;;;;;12.63;3.75;;;;;;;10.29;72.83;102107.22;5022659;28;20478;-82
2023/06/02 05:04:57;;;;;;;18.77;4.50;;;;;;;10.29;73.05;102117.75;5031491;28;20025;-81
2023/06/02 05:07:22;;;;;;;16.33;4.45;;;;;;;10.32;72.88;102117.56;5032023;28;20029;-83
2023/06/02 05:09:53;;;;;;;15.00;4.10;;;;;;;10.29;72.89;102123.84;5031889;28;20033;-83
2023/06/02 05:12:18;;;;;;;11.75;4.10;;;;;;;10.32;73.20;102115.78;5029636;28;20088;-82
2023/06/02 05:14:44;;;;;;;15.85;3.78;;;;;;;10.30;72.96;102119.44;5025143;28;20018;-83
2023/06/02 05:17:10;;;;;;;10.70;3.65;;;;;;;10.35;73.67;102122.69;5037556;28;20611;-83
2023/06/02 05:19:36;;;;;;;14.20;3.75;;;;;;;10.41;73.59;102121.53;5032034;28;20466;-83
2023/06/02 05:22:02;;;;;;;13.32;3.95;;;;;;;10.42;72.26;102124.06;5030372;28;20028;-84
2023/06/02 05:24:28;;;;;;;14.57;4.05;;;;;;;10.46;72.48;102130.03;5031786;28;20033;-83
2023/06/02 05:26:55;;;;;;;17.65;4.38;;;;;;;10.47;73.48;102127.31;5046697;28;20060;-83
2023/06/02 05:29:21;;;;;;;13.27;3.53;;;;;;;10.39;71.89;102126.84;5036227;28;20457;-83
2023/06/02 05:31:47;;;;;;;15.05;3.85;;;;;;;10.48;72.14;102128.16;5025391;28;20057;-83
2023/06/02 05:34:12;;;;;;;12.73;3.60;;;;;;;10.47;71.86;102129.94;5009709;28;20113;-82
2023/06/02 05:36:38;;;;;;;13.70;3.80;;;;;;;10.47;71.36;102115.94;5019684;28;20057;-82
2023/06/02 05:39:03;;;;;;;16.35;3.63;;;;;;;10.41;70.94;102122.38;5030179;28;20481;-82
2023/06/02 05:41:29;;;;;;;14.13;3.85;;;;;;;10.46;71.46;102125.63;5029653;28;20029;-84
2023/06/02 05:43:55;;;;;;;13.70;3.83;;;;;;;10.43;71.76;102128.41;5018015;28;20041;-82
2023/06/02 05:46:20;;;;;;;15.50;3.63;;;;;;;10.44;71.58;102130.09;5024171;28;20091;-83
2023/06/02 05:48:46;;;;;;;14.18;3.40;;;;;;;10.41;71.47;102124.16;5016025;28;20466;-82
2023/06/02 05:51:11;;;;;;;17.95;3.97;;;;;;;10.45;71.48;102123.91;5009514;28;20033;-82
2023/06/02 05:53:36;;;;;;;14.23;3.47;;;;;;;10.39;71.52;102129.47;5011764;28;20021;-83
2023/06/02 05:56:02;;;;;;;14.85;3.92;;;;;;;10.45;71.75;102129.19;5038368;28;20029;-83
2023/06/02 05:58:27;;;;;;;16.92;3.67;;;;;;;10.51;71.78;102128.00;5031409;28;20029;-83
2023/06/02 06:00:52;;;;;;;16.58;6.22;;;;;;;10.57;72.33;102130.28;5030235;28;20055;-80
2023/06/02 06:03:18;;;;;;;16.80;3.95;;;;;;;10.53;72.13;102134.03;5025610;28;20033;-83
2023/06/02 06:05:43;;;;;;;12.93;4.03;;;;;;;10.62;72.12;102130.91;5027170;28;20155;-83
2023/06/02 06:08:08;;;;;;;15.52;3.70;;;;;;;10.63;72.10;102127.34;5029392;28;20489;-83
2023/06/02 06:10:34;;;;;;;15.20;3.88;;;;;;;10.63;72.02;102128.19;5031291;28;20075;-84
2023/06/02 06:13:02;;;;;;;19.35;3.92;;;;;;;10.60;72.09;102128.34;5029309;28;20022;-83
2023/06/02 06:15:27;;;;;;;15.68;3.90;;;;;;;10.60;71.78;102127.50;5031242;28;20021;-80
2023/06/02 06:17:53;;;;;;;17.05;4.32;;;;;;;10.67;72.10;102127.09;5031051;28;20437;-79
2023/06/02 06:20:20;;;;;;;15.60;3.88;;;;;;;10.67;71.52;102129.72;5019902;28;20505;-83
2023/06/02 06:22:46;;;;;;;15.82;3.95;;;;;;;10.69;71.11;102129.63;5028676;28;20556;-83
2023/06/02 06:25:11;;;;;;;16.75;3.97;;;;;;;10.65;69.94;102134.22;5030108;28;20030;-84
2023/06/02 06:27:37;;;;;;;17.35;4.78;;;;;;;10.72;70.15;102131.25;5046446;28;20028;-80
2023/06/02 06:30:04;;;;;;;11.98;3.25;;;;;;;10.65;69.58;102133.38;5028481;28;20033;-80
2023/06/02 06:32:31;;;;;;;14.07;4.13;;;;;;;10.62;69.33;102146.69;5030248;28;20040;-81
2023/06/02 06:34:56;;;;;;;12.70;3.45;;;;;;;10.54;69.65;102133.09;5027868;28;20613;-81
2023/06/02 06:37:22;;;;;;;16.67;3.72;;;;;;;10.59;69.93;102138.97;5026867;28;20080;-82
2023/06/02 06:39:47;;;;;;;21.48;4.25;;;;;;;10.64;70.24;102136.94;5031089;28;20355;-83
2023/06/02 06:42:12;;;;;;;16.52;4.18;;;;;;;10.70;70.75;102128.69;5030466;28;20083;-83
2023/06/02 06:44:38;;;;;;;10.88;3.50;;;;;;;10.73;69.94;102135.56;5029879;28;20045;-82
2023/06/02 06:47:03;;;;;;;17.50;3.65;;;;;;;10.86;70.19;102136.63;5028564;28;20057;-80
2023/06/02 06:49:29;;;;;;;16.30;3.60;;;;;;;10.91;69.63;102129.34;5029138;28;20028;-84
2023/06/02 06:51:54;;;;;;;18.63;4.30;;;;;;;10.93;70.18;102133.56;5026941;28;20547;-76
2023/06/02 06:54:20;;;;;;;13.85;3.28;;;;;;;11.03;69.46;102136.53;5027426;28;20037;-78
2023/06/02 06:56:45;;;;;;;16.48;3.97;;;;;;;11.10;70.23;102127.38;5046962;28;20384;-76
2023/06/02 06:59:11;;;;;;;16.25;3.95;;;;;;;11.05;68.83;102129.41;5029582;28;20732;-77
2023/06/02 07:01:37;;;;;;;15.30;3.78;;;;;;;11.09;68.50;102135.34;5027749;28;20558;-76
2023/06/02 07:04:03;;;;;;;14.32;4.05;;;;;;;11.05;68.65;102132.03;5025850;28;20063;-76
2023/06/02 07:06:35;;;;;;;18.85;4.43;;;;;;;11.06;68.31;102141.66;5028225;28;20032;-76
2023/06/02 07:09:00;;;;;;;11.43;3.58;;;;;;;11.05;68.06;102139.94;4999889;28;20106;-76
2023/06/02 07:11:26;;;;;;;11.80;3.35;;;;;;;11.02;68.00;102134.84;4989658;28;20114;-75
2023/06/02 07:13:56;;;;;;;14.77;5.00;;;;;;;11.06;68.31;102130.25;5001300;28;20022;-75
2023/06/02 07:16:21;;;;;;;13.90;3.65;;;;;;;11.14;67.56;102128.88;5008328;28;20030;-75
2023/06/02 07:18:50;;;;;;;19.85;4.35;;;;;;;11.24;68.07;102134.53;5007701;28;20087;-85
2023/06/02 07:21:15;;;;;;;16.52;3.90;;;;;;;11.32;66.75;102136.72;5008111;28;20017;-85
2023/06/02 07:23:41;;;;;;;11.55;3.30;;;;;;;11.37;66.39;102134.66;5006122;28;20380;-84
2023/06/02 07:26:08;;;;;;;9.88;3.47;;;;;;;11.51;66.28;102143.47;5008620;28;20076;-84
2023/06/02 07:28:33;;;;;;;16.67;3.78;;;;;;;11.50;65.92;102149.69;4989809;28;20058;-81
2023/06/02 07:31:02;;;;;;;11.07;3.17;;;;;;;11.58;65.84;102149.25;4992459;28;20552;-85
2023/06/02 07:33:27;;;;;;;15.98;3.83;;;;;;;11.57;65.25;102155.44;5008437;28;20018;-84
2023/06/02 07:35:52;;;;;;;12.52;3.75;;;;;;;11.58;64.95;102159.78;5008109;28;20040;-84
2023/06/02 07:38:19;;;;;;;15.20;4.18;;;;;;;11.54;65.58;102153.00;5008010;28;20490;-84
2023/06/02 07:40:44;;;;;;;15.13;3.55;;;;;;;11.52;65.40;102154.88;5009157;28;20055;-83
2023/06/02 07:43:10;;;;;;;14.55;3.45;;;;;;;11.50;65.81;102151.47;5005106;28;20137;-83
2023/06/02 07:45:35;;;;;;;14.48;3.60;;;;;;;11.61;65.86;102151.72;5008974;28;20544;-84
2023/06/02 07:48:00;;;;;;;13.52;3.40;;;;;;;11.69;65.34;102141.59;5006441;28;20650;-84
2023/06/02 07:50:26;;;;;;;14.85;4.00;;;;;;;11.84;65.64;102137.22;5009773;28;20037;-85
2023/06/02 07:52:54;;;;;;;13.50;3.55;;;;;;;11.92;65.77;102142.91;5008201;28;20025;-85
2023/06/02 07:55:20;;;;;;;9.32;3.47;;;;;;;12.01;65.20;102139.75;5015770;28;20028;-85
2023/06/02 07:57:45;;;;;;;14.75;3.55;;;;;;;12.07;64.24;102136.75;5023558;28;20057;-84
2023/06/02 08:00:15;;;;;;;12.82;3.72;;;;;;;12.20;64.40;102142.13;5009691;28;20045;-85
2023/06/02 08:02:46;;;;;;;13.38;4.18;;;;;;;12.33;63.50;102137.78;4997733;28;20121;-83
2023/06/02 08:05:13;;;;;;;14.00;3.25;;;;;;;12.39;63.12;102139.22;4990037;28;20023;-84
2023/06/02 08:07:39;;;;;;;14.95;3.17;;;;;;;12.45;63.13;102137.06;4995840;28;20168;-84
2023/06/02 08:10:05;;;;;;;12.05;3.28;;;;;;;12.44;62.12;102135.38;5009760;28;20045;-83
2023/06/02 08:12:30;;;;;;;15.30;3.47;;;;;;;12.39;62.32;102124.22;5009698;28;20034;-84
2023/06/02 08:15:00;;;;;;;14.10;3.95;;;;;;;12.42;61.80;102137.25;5007087;28;20033;-86
2023/06/02 08:17:29;;;;;;;12.07;3.78;;;;;;;12.55;62.43;102134.69;5007158;28;20037;-85
2023/06/02 08:19:56;;;;;;;13.70;3.60;;;;;;;12.70;61.46;102128.47;5008305;28;20022;-86
2023/06/02 08:22:21;;;;;;;12.23;3.55;;;;;;;12.78;61.13;102130.63;5008518;28;20037;-84
2023/06/02 08:24:47;;;;;;;15.43;3.20;;;;;;;12.80;61.00;102134.00;5008595;28;20083;-84
2023/06/02 08:27:12;;;;;;;13.27;3.30;;;;;;;12.85;60.65;102142.53;5029423;28;20026;-84
2023/06/02 08:29:37;;;;;;;15.48;3.92;;;;;;;12.88;61.01;102134.41;5014312;28;20021;-85
2023/06/02 08:32:03;;;;;;;14.07;3.60;;;;;;;13.12;60.93;102140.75;5011881;28;20478;-84
2023/06/02 08:34:28;;;;;;;16.77;3.92;;;;;;;13.07;59.27;102142.00;5009330;28;20061;-84
2023/06/02 08:36:57;;;;;;;20.50;4.05;;;;;;;13.30;60.20;102138.78;5008012;28;20033;-86
2023/06/02 08:39:25;;;;;;;16.40;3.70;;;;;;;13.46;59.86;102136.81;5011553;28;20032;-86
2023/06/02 08:41:53;;;;;;;20.77;4.20;;;;;;;13.71;59.36;102136.06;5009398;28;20045;-84
2023/06/02 08:44:19;;;;;;;11.88;3.08;;;;;;;14.18;57.77;102133.81;5010520;28;20089;-83
2023/06/02 08:46:48;;;;;;;10.13;3.60;;;;;;;14.41;55.66;102136.56;5013759;28;20073;-84
2023/06/02 08:49:18;;;;;;;13.48;3.92;;;;;;;14.82;55.62;102124.91;5010409;28;20101;-83
2023/06/02 08:51:48;;;;;;;17.27;3.45;;;;;;;15.09;53.60;102127.34;5010572;28;20475;-85
2023/06/02 08:54:14;;;;;;;10.63;3.25;;;;;;;15.46;52.57;102132.59;5032378;28;20067;-84
2023/06/02 08:56:41;;;;;;;15.88;3.78;;;;;;;15.74;52.59;102126.97;5019813;28;20025;-85
2023/06/02 08:59:08;;;;;;;11.77;3.30;;;;;;;15.39;51.90;102124.25;5010076;28;20033;-83
2023/06/02 09:01:34;;;;;;;15.60;3.38;;;;;;;15.48;52.40;102123.56;5012041;28;20109;-83
2023/06/02 09:04:03;;;;;;;11.25;3.40;;;;;;;15.26;52.28;102124.31;5010412;28;20050;-74
2023/06/02 09:06:29;;;;;;;20.35;3.35;;;;;;;15.54;53.02;102119.63;5012693;28;20421;-76
2023/06/02 09:08:56;;;;;;;11.32;3.30;;;;;;;15.65;52.00;102117.06;5008588;28;20037;-82
2023/06/02 09:11:23;;;;;;;15.50;3.30;;;;;;;16.07;51.67;102115.59;5011988;28;20021;-82
2023/06/02 09:13:49;;;;;;;10.95;3.50;;;;;;;16.07;51.26;102115.59;5012604;28;20022;-82
2023/06/02 09:16:15;;;;;;;17.48;3.75;;;;;;;16.20;50.14;102120.81;5012151;28;20395;-83
2023/06/02 09:18:54;;;;;;;10.77;3.45;;;;;;;16.75;51.48;102122.66;5015056;28;20033;-82
2023/06/02 09:21:28;;;;;;;19.95;3.72;;;;;;;17.35;48.20;102112.50;5009609;28;20148;-84
2023/06/02 09:23:57;;;;;;;10.73;3.40;;;;;;;17.42;46.87;102119.84;5010273;28;20026;-83
2023/06/02 09:26:28;;;;;;;14.15;3.38;;;;;;;17.23;46.01;102117.03;5011176;28;20033;-79
2023/06/02 09:29:10;;;;;;;11.75;3.35;;;;;;;16.84;48.60;102111.31;5009957;28;20101;-82
2023/06/02 09:31:47;;;;;;;;;;;;;;;17.00;50.82;102110.06;5010473;28;20057;-83
2023/06/02 09:34:15;;;;;;;12.05;3.50;;;;;;;16.69;49.71;102109.88;5008177;28;19921;-84
2023/06/02 09:36:41;;;;;;;14.13;4.38;;;;;;;16.58;49.38;102112.50;5010674;28;20038;-82
2023/06/02 09:39:10;;;;;;;17.83;4.15;;;;;;;16.28;49.91;102110.44;5009502;28;20065;-83
2023/06/02 09:41:39;;;;;;;16.88;4.55;;;;;;;16.50;49.50;102113.13;5009288;28;20398;-82
2023/06/02 09:44:14;;;;;;;15.25;3.80;;;;;;;16.76;49.75;102107.56;5004855;28;20035;-80
2023/06/02 09:46:43;;;;;;;13.45;3.60;;;;;;;16.92;48.65;102103.56;5007663;28;20557;-77
2023/06/02 09:49:09;;;;;;;11.10;3.20;;;;;;;17.36;48.54;102100.91;5007409;28;20029;-78
2023/06/02 09:51:37;;;;;;;11.98;3.50;;;;;;;17.20;48.03;102102.13;5009555;28;20532;-79
2023/06/02 09:54:03;;;;;;;14.35;3.67;;;;;;;16.92;48.16;102103.56;5006314;28;20025;-78
2023/06/02 09:56:33;;;;;;;11.50;3.42;;;;;;;17.35;47.85;102108.03;5010217;28;20116;-81
2023/06/02 09:59:06;;;;;;;13.40;3.45;;;;;;;17.79;46.61;102092.88;5010442;28;20486;-81
2023/06/02 10:01:33;;;;;;;19.00;4.13;;;;;;;17.71;47.17;102100.66;5011745;28;20481;-81
2023/06/02 10:04:03;;;;;;;16.48;4.32;;;;;;;17.77;46.81;102087.66;5012055;28;20379;-81
2023/06/02 10:06:47;;;;;;;18.80;4.00;;;;;;;18.07;48.09;102094.88;5011553;28;20029;-82
2023/06/02 10:09:31;;;;;;;12.63;3.92;;;;;;;17.88;48.30;102096.56;5009913;28;20026;-81
2023/06/02 10:12:03;;;;;;;15.75;4.30;;;;;;;17.59;47.89;102098.97;5010563;28;20452;-80
2023/06/02 10:14:37;;;;;;;14.60;3.80;;;;;;;17.25;48.96;102088.50;5010457;28;20026;-82
2023/06/02 10:17:32;;;;;;;14.88;3.83;;;;;;;17.12;49.34;102093.09;5011023;28;20156;-83
2023/06/02 10:20:06;;;;;;;16.90;4.35;;;;;;;16.63;50.54;102085.56;5010847;28;20487;-82
2023/06/02 10:23:04;;;;;;;13.40;3.58;;;;;;;16.70;51.57;102092.94;5003071;28;20034;-82
2023/06/02 10:25:41;;;;;;;14.40;3.90;;;;;;;16.90;50.57;102092.22;4998158;28;20029;-81
2023/06/02 10:28:11;;;;;;;18.42;3.90;;;;;;;16.90;49.77;102100.19;5029077;28;20021;-80
2023/06/02 10:30:37;;;;;;;12.27;4.18;;;;;;;16.75;49.53;102101.41;5031026;28;20060;-80
2023/06/02 10:33:03;;;;;;;10.88;3.53;;;;;;;16.82;50.22;102094.66;5029638;28;20056;-80
2023/06/02 10:36:02;;;;;;;15.90;3.42;;;;;;;16.82;51.44;102094.66;5012015;28;20029;-79
2023/06/02 10:38:31;;;;;;;12.43;3.50;;;;;;;16.69;50.94;102091.25;5030313;28;20048;-81
2023/06/02 10:40:56;;;;;;;16.95;4.07;;;;;;;16.42;50.73;102088.13;5006783;28;20556;-80
2023/06/02 10:43:22;;;;;;;14.90;4.03;;;;;;;16.67;52.25;102085.22;4989445;28;20046;-82
2023/06/02 10:45:48;;;;;;;20.90;4.20;;;;;;;16.74;51.35;102077.59;4997900;28;20033;-80
2023/06/02 10:48:37;;;;;;;15.80;3.97;;;;;;;17.22;51.42;102078.94;5007559;28;20390;-81
2023/06/02 10:51:03;;;;;;;11.13;3.60;;;;;;;17.87;50.56;102078.91;5010037;28;20075;-81
2023/06/02 10:53:28;;;;;;;13.00;3.60;;;;;;;18.00;48.58;102093.69;5009476;28;20087;-80
2023/06/02 10:55:55;;;;;;;15.18;3.70;;;;;;;18.12;49.26;102084.66;5017348;28;20025;-81
2023/06/02 10:58:21;;;;;;;15.60;3.95;;;;;;;18.12;48.46;102091.81;5016044;28;20026;-81
2023/06/02 11:00:49;;;;;;;10.35;4.30;;;;;;;17.92;48.81;102090.84;5008736;28;20026;-80
2023/06/02 11:03:15;;;;;;;16.20;4.80;;;;;;;17.78;48.89;102088.50;5009200;28;20117;-81
2023/06/02 11:05:41;;;;;;;13.52;4.18;;;;;;;17.39;49.12;102090.84;5008635;28;20514;-82
2023/06/02 11:08:18;;;;;;;15.82;4.50;;;;;;;17.23;50.97;102088.63;4995394;28;20018;-80
2023/06/02 11:10:54;;;;;;;11.65;3.83;;;;;;;17.62;50.32;102074.78;5008606;28;20084;-80
2023/06/02 11:13:20;;;;;;;18.42;4.03;;;;;;;18.02;49.47;102074.94;5010391;28;20257;-79
2023/06/02 11:15:58;;;;;;;12.23;3.67;;;;;;;18.34;49.61;102077.47;5010056;28;20032;-81
2023/06/02 11:18:32;;;;;;;12.23;3.65;;;;;;;18.53;49.04;102074.88;5008989;28;20033;-80